createdAt,value
2023-04-16T00:00:12.591Z,77.18
2023-04-16T00:02:41.523Z,77.16
2023-04-16T00:05:10.455Z,77.74
2023-04-16T00:07:39.858Z,77.07
2023-04-16T00:10:09.211Z,76.57
2023-04-16T00:12:37.601Z,76.18
2023-04-16T00:15:06.156Z,76.84
2023-04-16T00:17:34.280Z,80.16
2023-04-16T00:20:02.349Z,81.59
2023-04-16T00:22:30.530Z,82.30
2023-04-16T00:24:59.942Z,84.50
2023-04-16T00:27:28.030Z,85.13
2023-04-16T00:29:56.031Z,84.98
2023-04-16T00:32:24.681Z,84.43
2023-04-16T00:34:52.728Z,84.45
2023-04-16T00:37:20.797Z,85.94
2023-04-16T00:39:48.803Z,89.04
2023-04-16T00:42:18.405Z,88.19
2023-04-16T00:44:46.473Z,86.47
2023-04-16T00:47:14.592Z,87.42
2023-04-16T00:49:42.765Z,84.20
2023-04-16T00:52:13.009Z,83.07
2023-04-16T00:54:42.119Z,82.69
2023-04-16T00:57:11.197Z,82.29
2023-04-16T00:59:41.145Z,81.31
2023-04-16T01:02:09.300Z,80.96
2023-04-16T01:04:37.566Z,81.07
2023-04-16T01:07:05.791Z,81.19
2023-04-16T01:09:33.842Z,81.49
2023-04-16T01:12:04.485Z,81.58
2023-04-16T01:14:36.437Z,80.77
2023-04-16T01:17:06.242Z,80.87
2023-04-16T01:19:36.383Z,80.50
2023-04-16T01:22:06.527Z,80.96
2023-04-16T01:24:36.562Z,80.98
2023-04-16T01:27:04.639Z,81.33
2023-04-16T01:29:32.789Z,81.32
2023-04-16T01:32:02.080Z,81.01
2023-04-16T01:34:35.286Z,80.78
2023-04-16T01:37:06.484Z,82.30
2023-04-16T01:39:34.517Z,84.77
2023-04-16T01:42:03.140Z,85.17
2023-04-16T01:44:31.910Z,86.39
2023-04-16T01:46:59.930Z,85.91
2023-04-16T01:49:28.510Z,86.99
2023-04-16T01:51:56.783Z,85.46
2023-04-16T01:54:26.318Z,83.33
2023-04-16T01:56:54.378Z,82.18
2023-04-16T01:59:22.459Z,82.67
2023-04-16T02:01:50.653Z,84.78
2023-04-16T02:04:18.801Z,88.83
2023-04-16T02:06:46.874Z,89.87
2023-04-16T02:09:15.678Z,88.77
2023-04-16T02:11:45.628Z,87.32
2023-04-16T02:14:13.767Z,84.63
2023-04-16T02:16:41.888Z,84.03
2023-04-16T02:19:20.474Z,83.90
2023-04-16T02:21:49.103Z,83.28
2023-04-16T02:24:17.094Z,83.79
2023-04-16T02:26:46.688Z,85.40
2023-04-16T02:29:17.899Z,86.78
2023-04-16T02:31:53.575Z,87.20
2023-04-16T02:34:22.274Z,86.80
2023-04-16T02:36:50.434Z,87.19
2023-04-16T02:39:18.616Z,87.45
2023-04-16T02:41:48.023Z,88.02
2023-04-16T02:44:16.156Z,87.46
2023-04-16T02:46:44.177Z,87.52
2023-04-16T02:49:12.363Z,87.75
2023-04-16T02:51:40.411Z,86.15
2023-04-16T02:54:08.657Z,84.29
2023-04-16T02:56:36.669Z,82.32
2023-04-16T02:59:06.164Z,81.31
2023-04-16T03:01:34.310Z,81.30
2023-04-16T03:04:02.362Z,80.90
2023-04-16T03:06:31.486Z,80.38
2023-04-16T03:08:59.490Z,82.87
2023-04-16T03:11:27.648Z,82.82
2023-04-16T03:13:55.669Z,82.03
2023-04-16T03:16:25.231Z,81.91
2023-04-16T03:18:53.382Z,83.99
2023-04-16T03:21:21.507Z,83.73
2023-04-16T03:23:49.550Z,82.91
2023-04-16T03:26:17.505Z,81.50
2023-04-16T03:28:45.999Z,80.31
2023-04-16T03:31:14.575Z,79.40
2023-04-16T03:33:44.107Z,80.03
2023-04-16T03:36:12.558Z,80.05
2023-04-16T03:38:40.581Z,80.40
2023-04-16T03:41:08.838Z,79.80
2023-04-16T03:43:37.080Z,79.59
2023-04-16T03:46:06.585Z,79.98
2023-04-16T03:48:34.824Z,79.11
2023-04-16T03:51:04.387Z,79.00
2023-04-16T03:53:32.947Z,78.90
2023-04-16T03:56:00.886Z,78.81
2023-04-16T03:58:29.319Z,78.51
2023-04-16T04:00:57.956Z,78.38
2023-04-16T04:03:26.926Z,78.40
2023-04-16T04:05:56.343Z,78.16
2023-04-16T04:08:32.208Z,77.86
2023-04-16T04:11:00.284Z,77.83
2023-04-16T04:13:29.070Z,77.67
2023-04-16T04:15:57.481Z,77.55
2023-04-16T04:18:25.731Z,77.03
2023-04-16T04:20:54.583Z,77.80
2023-04-16T04:23:26.377Z,77.45
2023-04-16T04:25:55.908Z,78.22
2023-04-16T04:28:23.889Z,79.10
2023-04-16T04:30:52.062Z,80.18
2023-04-16T04:33:20.577Z,82.95
2023-04-16T04:35:49.311Z,80.40
2023-04-16T04:38:19.997Z,79.33
2023-04-16T04:40:48.963Z,78.26
2023-04-16T04:43:20.105Z,78.11
2023-04-16T04:45:49.472Z,77.71
2023-04-16T04:48:18.261Z,77.88
2023-04-16T04:50:47.866Z,77.38
2023-04-16T04:53:15.978Z,77.19
2023-04-16T04:55:44.421Z,76.86
2023-04-16T04:58:12.685Z,76.42
2023-04-16T05:00:44.037Z,80.48
2023-04-16T05:03:13.509Z,83.11
2023-04-16T05:05:42.086Z,85.79
2023-04-16T05:08:10.276Z,87.92
2023-04-16T05:10:38.275Z,87.99
2023-04-16T05:13:06.421Z,86.28
2023-04-16T05:15:34.437Z,86.51
2023-04-16T05:18:03.992Z,88.07
2023-04-16T05:20:32.132Z,86.91
2023-04-16T05:23:00.172Z,85.37
2023-04-16T05:25:28.330Z,83.47
2023-04-16T05:27:56.308Z,82.06
2023-04-16T05:30:24.416Z,81.01
2023-04-16T05:32:52.830Z,80.89
2023-04-16T05:35:22.623Z,79.23
2023-04-16T05:37:50.635Z,78.52
2023-04-16T05:40:19.154Z,78.70
2023-04-16T05:42:47.199Z,78.96
2023-04-16T05:45:15.230Z,83.35
2023-04-16T05:47:43.299Z,85.57
2023-04-16T05:50:12.298Z,87.86
2023-04-16T05:52:41.751Z,89.39
2023-04-16T05:55:10.605Z,89.37
2023-04-16T05:57:38.632Z,86.68
2023-04-16T06:00:08.609Z,90.42
2023-04-16T06:02:43.085Z,90.85
2023-04-16T06:05:11.367Z,89.86
2023-04-16T06:07:39.436Z,89.32
2023-04-16T06:10:09.910Z,90.74
2023-04-16T06:12:38.121Z,88.75
2023-04-16T06:15:07.134Z,89.10
2023-04-16T06:17:35.364Z,89.60
2023-04-16T06:20:03.468Z,88.30
2023-04-16T06:22:31.639Z,91.85
2023-04-16T06:24:59.716Z,92.74
2023-04-16T06:27:29.273Z,91.09
2023-04-16T06:29:58.623Z,90.47
2023-04-16T06:32:26.750Z,91.13
2023-04-16T06:34:54.941Z,90.14
2023-04-16T06:37:23.031Z,88.95
2023-04-16T06:39:51.211Z,87.25
2023-04-16T06:42:19.347Z,86.49
2023-04-16T06:44:49.202Z,86.11
2023-04-16T06:47:17.613Z,86.19
2023-04-16T06:49:45.687Z,84.01
2023-04-16T06:52:13.869Z,83.47
2023-04-16T06:54:41.945Z,80.66
2023-04-16T06:57:10.005Z,79.19
2023-04-16T06:59:38.108Z,77.51
2023-04-16T07:02:09.184Z,79.86
2023-04-16T07:04:37.337Z,78.68
2023-04-16T07:07:05.457Z,79.55
2023-04-16T07:09:33.599Z,79.90
2023-04-16T07:12:01.782Z,80.90
2023-04-16T07:14:29.837Z,82.43
2023-04-16T07:16:57.999Z,82.69
2023-04-16T07:19:30.627Z,82.71
2023-04-16T07:21:58.740Z,81.23
2023-04-16T07:24:26.827Z,80.82
2023-04-16T07:26:55.021Z,80.67
2023-04-16T07:29:22.972Z,80.12
2023-04-16T07:31:51.192Z,80.75
2023-04-16T07:34:19.217Z,80.61
2023-04-16T07:36:48.680Z,79.90
2023-04-16T07:39:16.697Z,79.88
2023-04-16T07:41:44.860Z,80.43
2023-04-16T07:44:12.851Z,79.35
2023-04-16T07:46:46.785Z,79.32
2023-04-16T07:49:15.342Z,77.72
2023-04-16T07:51:43.469Z,78.04
2023-04-16T07:54:12.976Z,77.10
2023-04-16T07:56:41.095Z,78.59
2023-04-16T07:59:22.119Z,78.92
2023-04-16T08:01:51.702Z,75.53
2023-04-16T08:04:25.076Z,73.65
2023-04-16T08:06:54.281Z,75.45
2023-04-16T08:09:25.157Z,74.67
2023-04-16T08:11:53.260Z,73.33
2023-04-16T08:14:21.653Z,71.46
2023-04-16T08:16:49.738Z,69.87
2023-04-16T08:19:17.801Z,70.53
2023-04-16T08:21:45.943Z,70.40
2023-04-16T08:24:14.098Z,72.71
2023-04-16T08:26:43.536Z,70.65
2023-04-16T08:29:11.636Z,69.32
2023-04-16T08:31:40.071Z,67.57
2023-04-16T08:34:08.159Z,68.64
2023-04-16T08:36:36.258Z,70.46
2023-04-16T08:39:04.469Z,70.15
2023-04-16T08:41:35.498Z,65.67
2023-04-16T08:44:09.425Z,63.76
2023-04-16T08:46:39.217Z,63.86
2023-04-16T08:49:08.998Z,61.72
2023-04-16T08:51:37.907Z,60.40
2023-04-16T08:54:09.762Z,59.72
2023-04-16T08:56:38.804Z,59.28
2023-04-16T08:59:10.874Z,60.68
2023-04-16T09:01:41.947Z,63.21
2023-04-16T09:04:10.847Z,63.09
2023-04-16T09:06:41.461Z,62.13
2023-04-16T09:09:10.571Z,63.32
2023-04-16T09:11:40.124Z,61.10
2023-04-16T09:14:11.896Z,59.81
2023-04-16T09:16:41.114Z,60.80
2023-04-16T09:19:09.467Z,58.92
2023-04-16T09:21:38.300Z,59.47
2023-04-16T09:24:06.737Z,58.90
2023-04-16T09:26:35.655Z,57.54
2023-04-16T09:29:04.157Z,57.43
2023-04-16T09:31:33.679Z,54.87
2023-04-16T09:34:03.944Z,54.14
2023-04-16T09:36:32.596Z,51.43
2023-04-16T09:39:01.118Z,51.34
2023-04-16T09:41:30.614Z,51.49
2023-04-16T09:44:00.138Z,52.56
2023-04-16T09:46:35.050Z,52.22
2023-04-16T09:49:07.311Z,51.95
2023-04-16T09:51:38.530Z,51.18
2023-04-16T09:54:06.917Z,48.98
2023-04-16T09:56:35.388Z,49.17
2023-04-16T09:59:03.790Z,48.71
2023-04-16T10:01:33.339Z,48.12
2023-04-16T10:04:01.592Z,48.06
2023-04-16T10:06:31.264Z,46.62
2023-04-16T10:08:59.416Z,46.59
2023-04-16T10:11:27.431Z,46.47
2023-04-16T10:13:55.481Z,45.44
2023-04-16T10:16:24.170Z,44.40
2023-04-16T10:18:54.859Z,43.94
2023-04-16T10:21:23.265Z,44.20
2023-04-16T10:23:53.082Z,45.45
2023-04-16T10:26:22.796Z,49.42
2023-04-16T10:28:51.422Z,49.06
2023-04-16T10:31:19.845Z,49.15
2023-04-16T10:33:47.992Z,47.76
2023-04-16T10:36:18.811Z,46.84
2023-04-16T10:38:48.329Z,49.56
2023-04-16T10:41:16.757Z,50.61
2023-04-16T10:43:47.166Z,50.30
2023-04-16T10:46:23.823Z,48.37
2023-04-16T10:48:54.712Z,48.16
2023-04-16T10:51:31.741Z,47.55
2023-04-16T10:54:04.985Z,49.17
2023-04-16T10:56:34.993Z,47.24
2023-04-16T10:59:06.099Z,46.25
2023-04-16T11:01:36.203Z,47.08
2023-04-16T11:04:29.646Z,47.62
2023-04-16T11:07:07.572Z,47.49
2023-04-16T11:09:56.292Z,47.92
2023-04-16T11:12:27.383Z,48.05
2023-04-16T11:14:57.324Z,48.53
2023-04-16T11:17:30.523Z,47.46
2023-04-16T11:19:58.608Z,46.65
2023-04-16T11:22:28.380Z,46.18
2023-04-16T11:24:57.673Z,44.21
2023-04-16T11:27:26.476Z,44.94
2023-04-16T11:30:01.993Z,43.64
2023-04-16T11:32:33.472Z,42.58
2023-04-16T11:35:03.950Z,42.57
2023-04-16T11:37:38.142Z,42.97
2023-04-16T11:40:08.434Z,42.98
2023-04-16T11:42:37.958Z,42.18
2023-04-16T11:45:06.734Z,41.21
2023-04-16T11:47:44.722Z,40.96
2023-04-16T11:50:20.960Z,42.11
2023-04-16T11:52:51.364Z,42.96
2023-04-16T11:55:20.189Z,43.90
2023-04-16T11:57:48.639Z,44.11
2023-04-16T12:00:17.779Z,43.97
2023-04-16T12:02:47.341Z,43.72
2023-04-16T12:05:30.416Z,49.13
2023-04-16T12:08:01.626Z,47.30
2023-04-16T12:10:30.755Z,47.53
2023-04-16T12:13:11.829Z,45.57
2023-04-16T12:15:47.839Z,44.81
2023-04-16T12:18:17.044Z,45.50
2023-04-16T12:20:46.681Z,45.43
2023-04-16T12:23:26.352Z,45.35
2023-04-16T12:25:54.518Z,44.82
2023-04-16T12:28:31.304Z,43.43
2023-04-16T12:30:59.476Z,42.19
2023-04-16T12:33:27.535Z,41.46
2023-04-16T12:35:55.901Z,41.26
2023-04-16T12:38:25.690Z,39.29
2023-04-16T12:40:57.162Z,39.67
2023-04-16T12:43:26.383Z,37.44
2023-04-16T12:45:54.560Z,38.73
2023-04-16T12:48:22.716Z,39.99
2023-04-16T12:50:50.811Z,41.76
2023-04-16T12:53:19.064Z,40.02
2023-04-16T12:55:48.476Z,39.98
2023-04-16T12:58:16.552Z,39.24
2023-04-16T13:00:44.582Z,39.95
2023-04-16T13:03:12.765Z,38.31
2023-04-16T13:05:41.823Z,38.17
2023-04-16T13:08:09.871Z,38.01
2023-04-16T13:10:38.201Z,37.34
2023-04-16T13:13:07.841Z,36.68
2023-04-16T13:15:36.081Z,36.73
2023-04-16T13:18:04.154Z,37.06
2023-04-16T13:20:32.260Z,36.74
2023-04-16T13:23:00.307Z,36.70
2023-04-16T13:25:29.681Z,37.29
2023-04-16T13:27:57.757Z,37.14
2023-04-16T13:30:29.381Z,37.54
2023-04-16T13:32:57.545Z,37.09
2023-04-16T13:35:25.739Z,37.76
2023-04-16T13:37:53.807Z,38.37
2023-04-16T13:40:21.994Z,37.83
2023-04-16T13:42:50.087Z,37.97
2023-04-16T13:45:20.384Z,37.38
2023-04-16T13:47:50.007Z,36.70
2023-04-16T13:50:18.198Z,37.92
2023-04-16T13:52:46.380Z,40.67
2023-04-16T13:55:17.963Z,40.90
2023-04-16T13:57:47.340Z,40.65
2023-04-16T14:00:16.820Z,38.90
2023-04-16T14:02:46.149Z,38.91
2023-04-16T14:05:15.925Z,39.02
2023-04-16T14:07:44.201Z,38.39
2023-04-16T14:10:12.538Z,38.20
2023-04-16T14:12:40.753Z,38.75
2023-04-16T14:15:10.420Z,39.41
2023-04-16T14:17:38.550Z,38.42
2023-04-16T14:20:07.655Z,38.16
2023-04-16T14:22:37.041Z,38.49
2023-04-16T14:25:05.903Z,38.15
2023-04-16T14:27:34.288Z,37.96
2023-04-16T14:30:02.556Z,39.07
2023-04-16T14:32:30.702Z,39.10
2023-04-16T14:34:58.783Z,37.95
2023-04-16T14:37:27.474Z,37.50
2023-04-16T14:39:56.966Z,37.14
2023-04-16T14:42:25.020Z,36.16
2023-04-16T14:44:58.164Z,38.63
2023-04-16T14:47:28.709Z,37.33
2023-04-16T14:49:57.978Z,36.70
2023-04-16T14:52:28.809Z,37.36
2023-04-16T14:55:01.192Z,37.72
2023-04-16T14:57:29.430Z,37.65
2023-04-16T15:00:01.247Z,37.30
2023-04-16T15:02:31.338Z,37.51
2023-04-16T15:05:01.561Z,38.08
2023-04-16T15:07:31.568Z,39.04
2023-04-16T15:10:03.245Z,39.02
2023-04-16T15:12:31.537Z,38.10
2023-04-16T15:18:12.960Z,39.17
2023-04-16T15:20:46.872Z,41.13
2023-04-16T15:23:19.715Z,41.93
2023-04-16T15:25:50.380Z,41.82
2023-04-16T15:28:19.181Z,40.58
2023-04-16T15:30:47.976Z,40.51
2023-04-16T15:33:18.458Z,40.04
2023-04-16T15:35:51.258Z,40.26
2023-04-16T15:38:21.115Z,40.64
2023-04-16T15:40:51.813Z,41.18
2023-04-16T15:43:20.905Z,41.54
2023-04-16T15:45:49.558Z,41.99
2023-04-16T15:48:18.282Z,41.40
2023-04-16T15:50:46.919Z,41.64
2023-04-16T15:53:15.613Z,42.13
2023-04-16T15:55:43.798Z,41.68
2023-04-16T15:58:13.333Z,42.31
2023-04-16T16:00:41.743Z,42.93
2023-04-16T16:03:10.597Z,42.76
2023-04-16T16:05:44.152Z,42.93
2023-04-16T16:12:18.749Z,42.95
2023-04-16T16:14:54.448Z,43.05
2023-04-16T16:17:23.848Z,43.94
2023-04-16T16:19:52.460Z,43.74
2023-04-16T16:22:23.673Z,43.97
2023-04-16T16:24:52.135Z,44.07
2023-04-16T16:27:20.797Z,44.75
2023-04-16T16:29:50.335Z,44.50
2023-04-16T16:32:18.346Z,44.88
2023-04-16T16:34:46.444Z,44.83
2023-04-16T16:37:14.450Z,44.99
2023-04-16T16:39:42.464Z,45.42
2023-04-16T16:42:10.785Z,45.31
2023-04-16T16:44:38.917Z,45.83
2023-04-16T16:47:08.488Z,46.32
2023-04-16T16:49:36.545Z,46.46
2023-04-16T16:52:04.920Z,47.01
2023-04-16T16:54:33.017Z,47.39
2023-04-16T16:57:02.431Z,48.17
2023-04-16T16:59:30.629Z,48.91
2023-04-16T17:01:58.781Z,48.46
2023-04-16T17:04:28.271Z,48.48
2023-04-16T17:06:56.357Z,48.73
2023-04-16T17:09:24.467Z,48.98
2023-04-16T17:11:52.536Z,49.42
2023-04-16T17:14:20.565Z,49.44
2023-04-16T17:16:50.019Z,49.85
2023-04-16T17:19:18.335Z,50.13
2023-04-16T17:21:47.842Z,50.04
2023-04-16T17:24:15.925Z,50.40
2023-04-16T17:26:44.033Z,50.67
2023-04-16T17:29:12.060Z,50.84
2023-04-16T17:31:40.338Z,50.73
2023-04-16T17:34:08.657Z,50.92
2023-04-16T17:36:36.957Z,50.86
2023-04-16T17:39:06.490Z,51.24
2023-04-16T17:41:34.498Z,51.03
2023-04-16T17:44:02.636Z,51.58
2023-04-16T17:46:30.960Z,51.97
2023-04-16T17:48:59.058Z,52.11
2023-04-16T17:51:27.435Z,51.95
2023-04-16T17:53:55.704Z,52.04
2023-04-16T17:56:25.053Z,52.33
2023-04-16T17:58:53.083Z,52.84
2023-04-16T18:01:21.255Z,52.79
2023-04-16T18:03:49.468Z,53.02
2023-04-16T18:06:17.723Z,53.23
2023-04-16T18:08:45.686Z,53.80
2023-04-16T18:11:13.827Z,53.47
2023-04-16T18:13:43.660Z,53.78
2023-04-16T18:16:16.656Z,53.74
2023-04-16T18:18:45.228Z,53.84
2023-04-16T18:21:13.266Z,53.96
2023-04-16T18:23:41.411Z,53.88
2023-04-16T18:26:10.329Z,53.95
2023-04-16T18:28:39.407Z,54.56
2023-04-16T18:31:08.908Z,54.78
2023-04-16T18:36:08.385Z,54.77
2023-04-16T18:38:43.624Z,54.69
2023-04-16T18:41:18.519Z,54.83
2023-04-16T18:43:46.901Z,55.23
2023-04-16T18:46:17.133Z,55.00
2023-04-16T18:48:45.615Z,55.51
2023-04-16T18:51:15.921Z,55.59
2023-04-16T18:53:45.786Z,55.88
2023-04-16T18:56:14.071Z,56.17
2023-04-16T18:58:42.175Z,56.59
2023-04-16T19:01:13.010Z,56.38
2023-04-16T19:03:42.581Z,56.97
2023-04-16T19:06:10.673Z,57.42
2023-04-16T19:08:38.762Z,56.85
2023-04-16T19:11:06.791Z,56.66
2023-04-16T19:13:34.914Z,56.35
2023-04-16T19:16:05.022Z,56.38
2023-04-16T19:18:33.228Z,57.74
2023-04-16T19:21:02.920Z,57.93
2023-04-16T19:23:31.071Z,57.91
2023-04-16T19:25:59.282Z,57.67
2023-04-16T19:28:27.530Z,57.14
2023-04-16T19:30:56.515Z,56.93
2023-04-16T19:33:24.588Z,57.98
2023-04-16T19:35:52.566Z,56.87
2023-04-16T19:38:22.112Z,56.76
2023-04-16T19:40:50.332Z,57.37
2023-04-16T19:43:18.445Z,57.52
2023-04-16T19:45:47.517Z,57.52
2023-04-16T19:48:15.686Z,57.33
2023-04-16T19:50:43.998Z,58.88
2023-04-16T19:53:12.708Z,58.68
2023-04-16T19:55:42.656Z,59.78
2023-04-16T19:58:10.923Z,60.48
2023-04-16T20:00:40.868Z,62.00
2023-04-16T20:03:09.160Z,60.77
2023-04-16T20:05:37.217Z,60.98
2023-04-16T20:08:05.590Z,62.24
2023-04-16T20:10:33.699Z,62.21
2023-04-16T20:13:03.095Z,64.13
2023-04-16T20:15:31.190Z,63.14
2023-04-16T20:17:59.230Z,63.75
2023-04-16T20:20:27.517Z,63.65
2023-04-16T20:22:55.769Z,66.19
2023-04-16T20:25:26.261Z,67.58
2023-04-16T20:27:54.484Z,67.89
2023-04-16T20:30:28.910Z,67.26
2023-04-16T20:32:57.075Z,68.20
2023-04-16T20:35:25.383Z,68.95
2023-04-16T20:37:53.463Z,67.71
2023-04-16T20:40:24.024Z,67.06
2023-04-16T20:42:52.255Z,66.67
2023-04-16T20:45:21.082Z,65.66
2023-04-16T20:47:51.125Z,66.16
2023-04-16T20:50:19.413Z,66.05
2023-04-16T20:52:47.453Z,66.67
2023-04-16T20:55:15.602Z,66.11
2023-04-16T20:57:43.689Z,66.37
2023-04-16T21:00:12.716Z,67.78
2023-04-16T21:02:40.925Z,67.05
2023-04-16T21:05:14.184Z,68.50
2023-04-16T21:07:42.605Z,68.27
2023-04-16T21:10:11.647Z,69.08
2023-04-16T21:12:39.768Z,70.26
2023-04-16T21:15:08.774Z,69.08
2023-04-16T21:17:36.896Z,72.20
2023-04-16T21:20:07.015Z,71.21
2023-04-16T21:22:36.568Z,71.37
2023-04-16T21:25:04.940Z,71.98
2023-04-16T21:27:33.052Z,72.59
2023-04-16T21:30:01.172Z,72.25
2023-04-16T21:32:29.381Z,73.33
2023-04-16T21:34:57.394Z,73.03
2023-04-16T21:37:25.490Z,73.18
2023-04-16T21:39:54.856Z,73.78
2023-04-16T21:42:22.937Z,73.62
2023-04-16T21:44:50.935Z,74.66
2023-04-16T21:47:19.299Z,73.55
2023-04-16T21:49:47.332Z,74.95
2023-04-16T21:52:18.364Z,75.20
2023-04-16T21:54:46.742Z,76.23
2023-04-16T21:57:16.224Z,75.70
2023-04-16T21:59:44.298Z,76.64
2023-04-16T22:02:12.624Z,75.14
2023-04-16T22:04:40.685Z,74.47
2023-04-16T22:07:09.934Z,75.22
2023-04-16T22:09:38.023Z,76.48
2023-04-16T22:12:10.301Z,76.91
2023-04-16T22:14:46.295Z,77.26
2023-04-16T22:17:24.014Z,78.40
2023-04-16T22:19:53.458Z,78.03
2023-04-16T22:22:22.074Z,78.70
2023-04-16T22:24:50.247Z,78.18
2023-04-16T22:27:18.742Z,77.21
2023-04-16T22:29:48.374Z,80.73
2023-04-16T22:32:16.623Z,78.39
2023-04-16T22:34:44.788Z,77.87
2023-04-16T22:37:12.895Z,79.01
2023-04-16T22:39:41.126Z,81.33
2023-04-16T22:42:09.105Z,80.38
2023-04-16T22:44:37.701Z,80.51
2023-04-16T22:47:07.107Z,78.70
2023-04-16T22:49:35.229Z,78.88
2023-04-16T22:52:03.474Z,78.57
2023-04-16T22:54:31.964Z,79.88
2023-04-16T22:57:01.045Z,78.21
2023-04-16T22:59:29.054Z,76.67
2023-04-16T23:01:57.282Z,76.87
2023-04-16T23:04:26.801Z,77.65
2023-04-16T23:06:54.832Z,79.41
2023-04-16T23:09:23.389Z,79.04
2023-04-16T23:11:51.382Z,79.93
2023-04-16T23:14:19.576Z,80.60
2023-04-16T23:16:47.748Z,79.16
2023-04-16T23:19:15.853Z,78.91
2023-04-16T23:21:45.292Z,78.43
2023-04-16T23:24:13.348Z,81.02
2023-04-16T23:26:41.477Z,79.95
2023-04-16T23:29:09.823Z,78.49
2023-04-16T23:31:38.157Z,80.94
2023-04-16T23:34:06.192Z,80.68
2023-04-16T23:36:34.383Z,79.66
2023-04-16T23:39:03.857Z,80.39
2023-04-16T23:41:32.063Z,81.77
2023-04-16T23:44:00.137Z,81.76
2023-04-16T23:46:28.378Z,81.87
2023-04-16T23:48:56.431Z,81.39
2023-04-16T23:51:24.544Z,81.90
2023-04-16T23:53:52.660Z,79.82
2023-04-16T23:56:22.227Z,79.12
2023-04-16T23:58:50.244Z,78.85
